createdAt,value
2022-08-25T00:00:45.156Z,29.09
2022-08-25T00:03:44.105Z,28.44
2022-08-25T00:06:40.709Z,28.02
2022-08-25T00:09:35.704Z,27.76
2022-08-25T00:12:33.383Z,27.54
2022-08-25T00:15:33.845Z,27.35
2022-08-25T00:18:28.401Z,27.21
2022-08-25T00:21:22.477Z,27.07
2022-08-25T00:24:19.788Z,26.94
2022-08-25T00:27:16.902Z,26.83
2022-08-25T00:30:15.855Z,27.41
2022-08-25T00:33:12.089Z,29.25
2022-08-25T00:36:07.887Z,29.90
2022-08-25T00:39:01.530Z,29.16
2022-08-25T00:41:56.559Z,28.52
2022-08-25T00:44:53.163Z,28.09
2022-08-25T00:47:53.592Z,27.80
2022-08-25T00:50:50.207Z,27.57
2022-08-25T00:53:45.038Z,27.39
2022-08-25T00:56:42.601Z,27.24
2022-08-25T00:59:36.718Z,27.09
2022-08-25T01:02:30.463Z,26.97
2022-08-25T01:05:42.151Z,26.85
2022-08-25T01:08:54.282Z,27.63
2022-08-25T01:11:55.074Z,29.33
2022-08-25T01:15:02.792Z,29.83
2022-08-25T01:18:02.290Z,29.07
2022-08-25T01:20:55.484Z,28.45
2022-08-25T01:23:52.802Z,28.06
2022-08-25T01:26:47.922Z,27.79
2022-08-25T01:29:42.937Z,27.58
2022-08-25T01:32:37.225Z,27.41
2022-08-25T01:35:31.250Z,27.25
2022-08-25T01:38:26.114Z,27.11
2022-08-25T01:41:23.829Z,26.98
2022-08-25T01:44:19.889Z,26.87
2022-08-25T01:47:17.147Z,26.77
2022-08-25T01:50:13.993Z,27.37
2022-08-25T01:53:16.005Z,29.20
2022-08-25T01:56:15.868Z,29.83
2022-08-25T01:59:10.610Z,29.06
2022-08-25T02:02:04.745Z,28.45
2022-08-25T02:05:02.604Z,28.03
2022-08-25T02:07:59.742Z,27.75
2022-08-25T02:10:56.790Z,27.54
2022-08-25T02:13:50.613Z,27.36
2022-08-25T02:16:47.302Z,27.21
2022-08-25T02:19:43.585Z,27.06
2022-08-25T02:22:35.498Z,26.94
2022-08-25T02:25:29.990Z,26.83
2022-08-25T02:28:24.976Z,26.73
2022-08-25T02:31:20.190Z,27.33
2022-08-25T02:34:16.082Z,29.16
2022-08-25T02:37:10.428Z,29.80
2022-08-25T02:40:05.931Z,29.07
2022-08-25T02:43:00.331Z,28.43
2022-08-25T02:45:55.154Z,28.02
2022-08-25T02:48:52.049Z,27.74
2022-08-25T02:51:49.321Z,27.52
2022-08-25T02:54:44.240Z,27.35
2022-08-25T02:57:39.637Z,27.19
2022-08-25T03:00:34.090Z,27.05
2022-08-25T03:03:29.846Z,26.92
2022-08-25T03:06:27.423Z,26.81
2022-08-25T03:09:24.269Z,26.71
2022-08-25T03:12:18.753Z,27.18
2022-08-25T03:15:21.136Z,28.82
2022-08-25T03:18:16.635Z,29.43
2022-08-25T03:21:13.790Z,28.76
2022-08-25T03:24:11.636Z,28.17
2022-08-25T03:27:07.897Z,27.80
2022-08-25T03:30:04.638Z,27.54
2022-08-25T03:32:57.803Z,27.35
2022-08-25T03:35:54.045Z,27.20
2022-08-25T03:38:48.844Z,27.05
2022-08-25T03:41:42.602Z,26.92
2022-08-25T03:44:44.068Z,26.82
2022-08-25T03:47:37.182Z,26.71
2022-08-25T03:50:32.325Z,27.22
2022-08-25T03:53:27.093Z,29.00
2022-08-25T03:56:23.765Z,29.65
2022-08-25T03:59:18.283Z,28.95
2022-08-25T04:02:13.854Z,28.33
2022-08-25T04:05:12.952Z,27.92
2022-08-25T04:08:12.582Z,27.64
2022-08-25T04:11:13.209Z,27.43
2022-08-25T04:14:16.548Z,27.25
2022-08-25T04:17:16.839Z,27.09
2022-08-25T04:20:20.585Z,26.96
2022-08-25T04:23:15.100Z,26.83
2022-08-25T04:26:14.698Z,26.71
2022-08-25T04:29:10.957Z,26.61
2022-08-25T04:32:06.480Z,26.53
2022-08-25T04:34:59.544Z,27.06
2022-08-25T04:37:52.635Z,28.85
2022-08-25T04:40:46.723Z,29.52
2022-08-25T04:43:41.399Z,28.84
2022-08-25T04:46:39.626Z,28.20
2022-08-25T04:49:35.597Z,27.78
2022-08-25T04:52:33.795Z,27.51
2022-08-25T04:55:33.713Z,27.30
2022-08-25T04:58:28.395Z,27.12
2022-08-25T05:01:31.395Z,26.97
2022-08-25T05:04:29.082Z,26.83
2022-08-25T05:07:38.160Z,26.70
2022-08-25T05:10:55.638Z,26.59
2022-08-25T05:13:57.102Z,26.48
2022-08-25T05:17:01.415Z,26.38
2022-08-25T05:19:59.676Z,26.29
2022-08-25T05:22:55.767Z,26.81
2022-08-25T05:25:49.576Z,28.63
2022-08-25T05:28:51.348Z,29.31
2022-08-25T05:31:50.794Z,28.58
2022-08-25T05:34:53.170Z,27.97
2022-08-25T05:37:57.627Z,27.58
2022-08-25T05:40:58.792Z,27.32
2022-08-25T05:43:52.872Z,27.14
2022-08-25T05:46:47.791Z,26.98
2022-08-25T05:49:44.830Z,26.84
2022-08-25T05:52:57.200Z,26.71
2022-08-25T05:55:58.576Z,26.58
2022-08-25T05:58:59.184Z,26.48
2022-08-25T06:02:16.542Z,26.38
2022-08-25T06:05:16.885Z,26.29
2022-08-25T06:08:16.215Z,26.77
2022-08-25T06:11:15.130Z,28.63
2022-08-25T06:14:15.164Z,29.34
2022-08-25T06:17:15.823Z,28.62
2022-08-25T06:20:25.454Z,27.97
2022-08-25T06:23:39.196Z,27.57
2022-08-25T06:26:46.101Z,27.30
2022-08-25T06:29:46.007Z,27.09
2022-08-25T06:32:51.196Z,26.93
2022-08-25T06:35:50.154Z,26.79
2022-08-25T06:38:51.169Z,26.66
2022-08-25T06:41:47.263Z,26.56
2022-08-25T06:44:45.616Z,26.47
2022-08-25T06:47:49.112Z,26.39
2022-08-25T06:50:52.895Z,27.04
2022-08-25T06:53:54.503Z,28.87
2022-08-25T06:56:49.676Z,29.49
2022-08-25T06:59:59.611Z,28.73
2022-08-25T07:03:02.095Z,28.10
2022-08-25T07:06:04.087Z,27.71
2022-08-25T07:09:10.237Z,27.46
2022-08-25T07:12:11.253Z,27.25
2022-08-25T07:15:20.398Z,27.08
2022-08-25T07:18:24.913Z,26.93
2022-08-25T07:21:32.649Z,26.81
2022-08-25T07:24:36.977Z,26.69
2022-08-25T07:27:37.092Z,26.58
2022-08-25T07:30:41.241Z,26.49
2022-08-25T07:34:05.508Z,26.40
2022-08-25T07:37:23.795Z,27.22
2022-08-25T07:40:32.692Z,29.08
2022-08-25T07:43:38.193Z,29.65
2022-08-25T07:46:40.743Z,28.86
2022-08-25T07:49:45.549Z,28.23
2022-08-25T07:52:52.277Z,27.84
2022-08-25T07:56:00.117Z,27.57
2022-08-25T07:59:08.375Z,27.35
2022-08-25T08:02:19.477Z,27.18
2022-08-25T08:05:24.984Z,27.02
2022-08-25T08:08:20.585Z,26.89
2022-08-25T08:11:20.229Z,26.78
2022-08-25T08:14:24.231Z,26.67
2022-08-25T08:17:38.271Z,26.57
2022-08-25T08:20:43.384Z,26.48
2022-08-25T08:23:38.924Z,26.40
2022-08-25T08:26:58.333Z,26.93
2022-08-25T08:30:04.241Z,28.83
2022-08-25T08:33:16.504Z,29.45
2022-08-25T08:36:18.844Z,28.66
2022-08-25T08:39:22.352Z,28.09
2022-08-25T08:42:49.591Z,27.72
2022-08-25T08:45:58.794Z,27.45
2022-08-25T08:49:06.030Z,27.27
2022-08-25T08:52:12.361Z,27.12
2022-08-25T08:55:17.039Z,26.97
2022-08-25T08:58:39.273Z,26.86
2022-08-25T09:01:53.231Z,26.74
2022-08-25T09:05:05.322Z,26.64
2022-08-25T09:08:06.466Z,26.55
2022-08-25T09:11:18.842Z,26.48
2022-08-25T09:14:30.417Z,26.41
2022-08-25T09:17:54.816Z,27.19
2022-08-25T09:21:05.052Z,29.16
2022-08-25T09:24:28.964Z,29.63
2022-08-25T09:27:35.062Z,28.78
2022-08-25T09:30:45.085Z,28.21
2022-08-25T09:33:47.470Z,27.84
2022-08-25T09:36:48.843Z,27.61
2022-08-25T09:39:57.489Z,27.42
2022-08-25T09:43:00.797Z,27.25
2022-08-25T09:46:03.987Z,27.12
2022-08-25T09:49:18.987Z,26.99
2022-08-25T09:52:36.486Z,26.87
2022-08-25T09:55:40.360Z,26.78
2022-08-25T09:58:49.235Z,26.69
2022-08-25T10:01:56.117Z,26.61
2022-08-25T10:04:55.079Z,27.27
2022-08-25T10:08:02.345Z,28.98
2022-08-25T10:11:12.165Z,29.52
2022-08-25T10:14:28.367Z,28.79
2022-08-25T10:17:34.186Z,28.18
2022-08-25T10:20:44.721Z,27.84
2022-08-25T10:23:57.099Z,27.59
2022-08-25T10:27:05.538Z,27.41
2022-08-25T10:30:21.316Z,27.25
2022-08-25T10:33:37.369Z,27.10
2022-08-25T10:36:57.336Z,26.98
2022-08-25T10:40:17.399Z,26.87
2022-08-25T10:43:33.606Z,26.78
2022-08-25T10:46:43.743Z,26.69
2022-08-25T10:49:49.952Z,26.61
2022-08-25T10:53:00.508Z,26.55
2022-08-25T10:56:07.585Z,26.49
2022-08-25T10:59:29.994Z,26.43
2022-08-25T11:03:16.397Z,27.31
2022-08-25T11:06:30.743Z,29.31
2022-08-25T11:09:44.579Z,30.14
2022-08-25T11:12:54.388Z,30.37
2022-08-25T11:16:19.273Z,29.49
2022-08-25T11:19:24.387Z,28.82
2022-08-25T11:22:33.428Z,28.44
2022-08-25T11:25:46.411Z,28.14
2022-08-25T11:28:56.096Z,27.91
2022-08-25T11:32:05.127Z,27.71
2022-08-25T11:35:19.999Z,27.54
2022-08-25T11:38:36.405Z,27.39
2022-08-25T11:41:59.370Z,27.24
2022-08-25T11:45:16.403Z,27.11
2022-08-25T11:48:31.392Z,26.99
2022-08-25T11:51:36.325Z,26.90
2022-08-25T11:54:39.180Z,26.80
2022-08-25T11:57:43.573Z,26.73
2022-08-25T12:00:47.392Z,26.66
2022-08-25T12:04:20.501Z,27.27
2022-08-25T12:07:30.484Z,29.35
2022-08-25T12:11:11.852Z,29.84
2022-08-25T12:14:57.396Z,28.91
2022-08-25T12:18:28.410Z,28.29
2022-08-25T12:21:47.435Z,27.95
2022-08-25T12:25:01.913Z,27.74
2022-08-25T12:28:16.268Z,27.57
2022-08-25T12:32:09.519Z,27.42
2022-08-25T12:35:36.192Z,27.26
2022-08-25T12:38:34.997Z,27.13
2022-08-25T12:41:38.799Z,27.04
2022-08-25T12:44:46.250Z,26.96
2022-08-25T12:47:50.302Z,26.87
2022-08-25T12:50:52.160Z,27.44
2022-08-25T12:54:30.475Z,29.37
2022-08-25T12:57:51.691Z,29.85
2022-08-25T13:01:35.249Z,29.02
2022-08-25T13:05:05.468Z,28.40
2022-08-25T13:08:53.574Z,28.07
2022-08-25T13:12:25.446Z,27.79
2022-08-25T13:15:44.746Z,27.62
2022-08-25T13:19:04.484Z,27.48
2022-08-25T13:22:21.488Z,27.35
2022-08-25T13:25:35.292Z,28.04
2022-08-25T13:28:50.271Z,29.64
2022-08-25T13:32:04.312Z,30.09
2022-08-25T13:35:17.778Z,29.29
2022-08-25T13:38:33.232Z,28.70
2022-08-25T13:41:43.961Z,28.35
2022-08-25T13:44:56.220Z,28.09
2022-08-25T13:47:59.605Z,27.91
2022-08-25T13:51:00.365Z,27.74
2022-08-25T13:54:04.127Z,27.61
2022-08-25T13:57:19.500Z,27.48
2022-08-25T14:00:47.270Z,27.36
2022-08-25T14:03:55.687Z,28.07
2022-08-25T14:07:38.475Z,29.86
2022-08-25T14:10:46.534Z,30.27
2022-08-25T14:13:56.729Z,29.44
2022-08-25T14:17:28.792Z,28.87
2022-08-25T14:20:41.744Z,28.48
2022-08-25T14:23:55.539Z,28.24
2022-08-25T14:27:00.311Z,28.03
2022-08-25T14:30:04.359Z,27.88
2022-08-25T14:33:17.509Z,27.72
2022-08-25T14:36:27.200Z,27.59
2022-08-25T14:39:45.048Z,27.47
2022-08-25T14:42:48.355Z,27.36
2022-08-25T14:45:46.564Z,27.96
2022-08-25T14:48:57.898Z,29.76
2022-08-25T14:52:01.556Z,30.31
2022-08-25T14:55:12.517Z,29.53
2022-08-25T14:58:51.123Z,28.89
2022-08-25T15:02:15.569Z,28.49
2022-08-25T15:05:39.801Z,28.22
2022-08-25T15:09:12.069Z,28.02
2022-08-25T15:12:44.116Z,27.84
2022-08-25T15:15:52.646Z,27.69
2022-08-25T15:19:06.981Z,27.57
2022-08-25T15:22:10.748Z,27.47
2022-08-25T15:25:28.601Z,27.36
2022-08-25T15:28:35.856Z,28.08
2022-08-25T15:31:39.506Z,29.82
2022-08-25T15:34:40.502Z,30.35
2022-08-25T15:37:49.607Z,29.60
2022-08-25T15:40:49.603Z,29.00
2022-08-25T15:44:05.512Z,28.61
2022-08-25T15:47:12.504Z,28.34
2022-08-25T15:50:12.435Z,28.15
2022-08-25T15:53:10.732Z,27.99
2022-08-25T15:56:26.755Z,27.85
2022-08-25T15:59:29.588Z,27.71
2022-08-25T16:02:33.117Z,27.60
2022-08-25T16:05:33.586Z,27.50
2022-08-25T16:08:37.887Z,27.41
2022-08-25T16:11:45.589Z,27.33
2022-08-25T16:15:00.578Z,27.25
2022-08-25T16:18:05.674Z,27.19
2022-08-25T16:21:15.742Z,27.85
2022-08-25T16:24:12.425Z,29.65
2022-08-25T16:27:15.657Z,30.22
2022-08-25T16:30:26.632Z,29.49
2022-08-25T16:33:32.601Z,28.93
2022-08-25T16:36:39.938Z,28.56
2022-08-25T16:39:40.033Z,28.34
2022-08-25T16:42:51.728Z,28.15
2022-08-25T16:46:03.328Z,27.99
2022-08-25T16:49:06.431Z,27.87
2022-08-25T16:52:30.430Z,27.75
2022-08-25T16:55:42.522Z,27.64
2022-08-25T16:58:44.632Z,27.55
2022-08-25T17:01:49.662Z,27.47
2022-08-25T17:04:56.614Z,27.39
2022-08-25T17:08:23.888Z,27.33
2022-08-25T17:11:42.628Z,27.26
2022-08-25T17:14:41.829Z,27.99
2022-08-25T17:17:51.079Z,29.81
2022-08-25T17:20:52.629Z,30.32
2022-08-25T17:23:51.516Z,29.62
2022-08-25T17:26:51.558Z,29.05
2022-08-25T17:29:59.849Z,28.68
2022-08-25T17:33:02.019Z,28.43
2022-08-25T17:36:06.646Z,28.24
2022-08-25T17:39:22.129Z,28.08
2022-08-25T17:42:26.785Z,27.94
2022-08-25T17:45:39.500Z,27.81
2022-08-25T17:48:43.808Z,27.70
2022-08-25T17:51:53.798Z,27.60
2022-08-25T17:54:58.867Z,27.51
2022-08-25T17:58:07.682Z,27.43
2022-08-25T18:01:05.396Z,27.35
2022-08-25T18:04:07.647Z,27.90
2022-08-25T18:07:36.692Z,29.79
2022-08-25T18:10:49.094Z,30.22
2022-08-25T18:13:58.701Z,29.50
2022-08-25T18:17:09.659Z,28.93
2022-08-25T18:20:10.800Z,28.58
2022-08-25T18:23:15.615Z,28.36
2022-08-25T18:26:15.151Z,28.18
2022-08-25T18:29:19.667Z,28.02
2022-08-25T18:32:19.589Z,27.90
2022-08-25T18:35:35.731Z,27.78
2022-08-25T18:39:06.406Z,27.66
2022-08-25T18:42:17.720Z,27.55
2022-08-25T18:45:26.859Z,27.46
2022-08-25T18:48:33.091Z,27.38
2022-08-25T18:51:48.054Z,27.30
2022-08-25T18:55:01.574Z,28.14
2022-08-25T18:57:56.840Z,29.78
2022-08-25T19:01:10.724Z,30.25
2022-08-25T19:04:31.652Z,29.49
2022-08-25T19:07:37.494Z,28.92
2022-08-25T19:10:37.285Z,28.57
2022-08-25T19:13:45.990Z,28.35
2022-08-25T19:16:59.496Z,28.15
2022-08-25T19:20:10.958Z,27.99
2022-08-25T19:23:17.803Z,27.86
2022-08-25T19:26:31.244Z,27.74
2022-08-25T19:29:40.125Z,28.31
2022-08-25T19:32:53.251Z,30.12
2022-08-25T19:35:56.698Z,30.62
2022-08-25T19:39:12.562Z,29.83
2022-08-25T19:42:32.728Z,29.19
2022-08-25T19:45:43.705Z,28.80
2022-08-25T19:48:52.754Z,28.54
2022-08-25T19:51:55.446Z,28.35
2022-08-25T19:55:05.501Z,28.16
2022-08-25T19:58:10.558Z,28.00
2022-08-25T20:01:08.526Z,27.88
2022-08-25T20:04:16.748Z,28.40
2022-08-25T20:07:28.712Z,30.12
2022-08-25T20:10:41.894Z,30.58
2022-08-25T20:13:45.555Z,29.76
2022-08-25T20:16:45.372Z,29.21
2022-08-25T20:19:47.763Z,28.84
2022-08-25T20:22:59.786Z,28.59
2022-08-25T20:25:56.086Z,28.37
2022-08-25T20:28:52.899Z,28.19
2022-08-25T20:32:06.568Z,28.66
2022-08-25T20:35:14.592Z,30.43
2022-08-25T20:38:21.771Z,30.96
2022-08-25T20:41:26.685Z,30.10
2022-08-25T20:44:42.104Z,29.43
2022-08-25T20:47:51.462Z,28.94
2022-08-25T20:50:57.274Z,28.64
2022-08-25T20:53:56.652Z,29.11
2022-08-25T20:56:54.567Z,30.67
2022-08-25T20:59:59.262Z,31.13
2022-08-25T21:03:05.332Z,30.29
2022-08-25T21:06:17.159Z,29.59
2022-08-25T21:09:20.559Z,29.16
2022-08-25T21:12:19.216Z,28.85
2022-08-25T21:15:25.483Z,28.59
2022-08-25T21:18:35.850Z,28.38
2022-08-25T21:21:32.172Z,28.20
2022-08-25T21:24:37.765Z,28.70
2022-08-25T21:27:38.897Z,30.36
2022-08-25T21:30:39.085Z,30.85
2022-08-25T21:33:41.373Z,30.08
2022-08-25T21:36:42.409Z,29.43
2022-08-25T21:39:40.852Z,29.01
2022-08-25T21:42:41.801Z,28.72
2022-08-25T21:45:46.492Z,28.49
2022-08-25T21:48:47.426Z,28.29
2022-08-25T21:51:59.293Z,28.11
2022-08-25T21:54:59.844Z,28.70
2022-08-25T21:58:05.801Z,30.31
2022-08-25T22:01:15.882Z,30.74
2022-08-25T22:04:18.641Z,29.92
2022-08-25T22:07:20.820Z,29.33
2022-08-25T22:10:22.801Z,28.93
2022-08-25T22:13:25.571Z,28.64
2022-08-25T22:16:25.136Z,28.41
2022-08-25T22:19:19.376Z,28.22
2022-08-25T22:22:20.828Z,28.05
2022-08-25T22:25:23.772Z,27.90
2022-08-25T22:28:24.145Z,28.45
2022-08-25T22:31:34.874Z,30.02
2022-08-25T22:34:30.616Z,30.53
2022-08-25T22:37:35.163Z,29.82
2022-08-25T22:40:29.883Z,29.20
2022-08-25T22:43:25.721Z,28.82
2022-08-25T22:46:20.894Z,28.56
2022-08-25T22:49:17.446Z,28.34
2022-08-25T22:52:15.296Z,28.16
2022-08-25T22:55:22.469Z,27.98
2022-08-25T22:58:16.764Z,27.84
2022-08-25T23:01:19.132Z,27.71
2022-08-25T23:04:15.572Z,28.32
2022-08-25T23:07:14.803Z,30.11
2022-08-25T23:10:21.424Z,30.63
2022-08-25T23:13:33.746Z,29.85
2022-08-25T23:16:35.658Z,29.18
2022-08-25T23:19:30.739Z,28.78
2022-08-25T23:22:24.421Z,28.51
2022-08-25T23:25:25.147Z,28.30
2022-08-25T23:28:20.561Z,28.10
2022-08-25T23:31:15.428Z,27.94
2022-08-25T23:34:09.232Z,27.80
2022-08-25T23:37:06.912Z,27.67
2022-08-25T23:40:10.892Z,28.27
2022-08-25T23:43:05.444Z,30.04
2022-08-25T23:46:00.589Z,30.58
2022-08-25T23:48:57.732Z,29.83
2022-08-25T23:51:55.100Z,29.18
2022-08-25T23:54:47.473Z,28.78
2022-08-25T23:57:41.844Z,28.50
